Time;durP1;ratioP1;P1;durP2;ratioP2;P2;SDS_P1;SDS_P2;PMS_P1;PMS_P2;Temp;Humidity;BMP_temperature;BMP_pressure;BME280_temperature;BME280_humidity;BME280_pressure;Samples;Min_cycle;Max_cycle;Signal;HPM_P1;HPM_P2
2022/07/02 00:00:59;;;;;;;25.15;4.25;;;;;12.10;97070.00;;;;8313533;28;20236;-74
2022/07/02 00:05:05;;;;;;;82.78;6.40;;;;;12.10;97068.00;;;;8313919;28;20201;-73
2022/07/02 00:09:09;;;;;;;40.95;4.78;;;;;12.10;97074.00;;;;8314362;28;20532;-71
2022/07/02 00:13:14;;;;;;;18.60;4.32;;;;;12.00;97075.00;;;;8320953;28;20277;-73
2022/07/02 00:17:19;;;;;;;18.70;4.30;;;;;12.00;97068.00;;;;8320423;28;20207;-72
2022/07/02 00:21:23;;;;;;;21.50;4.93;;;;;12.00;97063.00;;;;8321547;28;20641;-72
2022/07/02 00:25:29;;;;;;;28.60;4.95;;;;;11.90;97070.00;;;;8316611;28;20677;-71
2022/07/02 00:29:37;;;;;;;19.52;4.22;;;;;11.80;97066.00;;;;8319274;28;20220;-73
2022/07/02 00:33:45;;;;;;;12.30;4.33;;;;;11.80;97062.00;;;;8319468;28;20260;-72
2022/07/02 00:37:48;;;;;;;26.08;4.30;;;;;11.80;97063.00;;;;8318564;28;20190;-71
2022/07/02 00:41:52;;;;;;;24.25;4.95;;;;;11.70;97068.00;;;;8319913;28;20281;-71
2022/07/02 00:45:59;;;;;;;15.40;4.07;;;;;11.70;97067.00;;;;8319129;28;20205;-71
2022/07/02 00:50:05;;;;;;;14.73;4.57;;;;;11.60;97060.00;;;;8320524;28;20226;-71
2022/07/02 00:54:08;;;;;;;14.40;3.83;;;;;11.60;97064.00;;;;8321848;28;20221;-71
2022/07/02 00:58:12;;;;;;;16.17;3.72;;;;;11.50;97056.00;;;;8320325;28;20208;-72
2022/07/02 01:02:16;;;;;;;11.43;4.13;;;;;11.50;97059.00;;;;8315208;28;20284;-72
2022/07/02 01:06:22;;;;;;;4.35;3.47;;;;;11.40;97058.00;;;;8319950;28;20566;-72
2022/07/02 01:10:25;;;;;;;10.90;4.15;;;;;11.50;97065.00;;;;8318876;28;20643;-68
2022/07/02 01:14:29;;;;;;;18.65;5.22;;;;;11.50;97053.00;;;;8315025;28;20225;-70
2022/07/02 01:18:34;;;;;;;22.08;4.63;;;;;11.60;97060.00;;;;8320034;28;20701;-71
2022/07/02 01:22:39;;;;;;;13.13;5.00;;;;;11.80;97060.00;;;;8315521;28;20193;-71
2022/07/02 01:26:42;;;;;;;44.70;5.07;;;;;12.00;97063.00;;;;8320102;28;20203;-71
2022/07/02 01:30:46;;;;;;;75.75;6.72;;;;;12.20;97051.00;;;;8315293;28;20234;-71
2022/07/02 01:34:51;;;;;;;44.33;4.88;;;;;12.20;97051.00;;;;8316059;28;20238;-71
2022/07/02 01:38:56;;;;;;;110.13;7.82;;;;;12.30;97041.00;;;;8318070;28;20618;-71
2022/07/02 01:42:59;;;;;;;37.28;4.93;;;;;12.30;97040.00;;;;8312733;28;20206;-71
2022/07/02 01:47:04;;;;;;;33.08;4.70;;;;;12.30;97036.00;;;;8319169;28;20212;-71
2022/07/02 01:51:07;;;;;;;72.93;5.30;;;;;12.30;97048.00;;;;8317972;28;20203;-72
2022/07/02 01:55:12;;;;;;;25.73;3.90;;;;;12.30;97043.00;;;;8317856;28;20232;-70
2022/07/02 01:59:16;;;;;;;24.95;3.60;;;;;12.40;97050.00;;;;8318125;28;20209;-72
2022/07/02 02:03:19;;;;;;;59.75;5.97;;;;;12.40;97046.00;;;;8312995;28;20228;-71
2022/07/02 02:07:23;;;;;;;74.85;5.90;;;;;12.40;97054.00;;;;8322419;28;20259;-70
2022/07/02 02:11:27;;;;;;;36.15;5.20;;;;;12.50;97059.00;;;;8313821;28;20207;-70
2022/07/02 02:15:32;;;;;;;64.93;7.10;;;;;12.50;97053.00;;;;8315597;28;20736;-70
2022/07/02 02:19:37;;;;;;;102.50;8.38;;;;;12.50;97052.00;;;;8315943;28;20286;-74
2022/07/02 02:23:40;;;;;;;52.90;6.43;;;;;12.50;97055.00;;;;8316760;28;20200;-74
2022/07/02 02:27:44;;;;;;;21.58;4.43;;;;;12.40;97060.00;;;;8316240;28;20564;-71
2022/07/02 02:31:48;;;;;;;19.35;3.95;;;;;12.40;97059.00;;;;8317034;28;20196;-73
2022/07/02 02:35:51;;;;;;;20.05;3.78;;;;;12.40;97063.00;;;;8313951;28;20238;-70
2022/07/02 02:39:54;;;;;;;56.78;6.65;;;;;12.40;97065.00;;;;8314999;28;20291;-73
2022/07/02 02:43:59;;;;;;;24.80;5.13;;;;;12.40;97068.00;;;;8314472;28;20200;-72
2022/07/02 02:48:02;;;;;;;26.02;4.32;;;;;12.50;97073.00;;;;8316523;28;20276;-71
2022/07/02 02:52:06;;;;;;;27.95;4.50;;;;;12.50;97061.00;;;;8314894;28;20251;-70
2022/07/02 02:56:10;;;;;;;45.42;6.40;;;;;12.50;97077.00;;;;8312975;28;20230;-70
2022/07/02 03:00:16;;;;;;;43.05;5.97;;;;;12.50;97082.00;;;;8317669;28;20281;-72
2022/07/02 03:04:19;;;;;;;112.05;8.50;;;;;12.60;97083.00;;;;8346022;22;20262;-71
2022/07/02 03:08:23;;;;;;;71.78;7.00;;;;;12.50;97092.00;;;;8342430;28;20193;-70
2022/07/02 03:12:26;;;;;;;33.83;7.00;;;;;12.60;97087.00;;;;8340321;28;20210;-70
2022/07/02 03:16:31;;;;;;;118.22;9.93;;;;;12.70;97089.00;;;;8340894;28;20197;-71
2022/07/02 03:20:34;;;;;;;123.57;10.05;;;;;12.80;97097.00;;;;8348434;28;20674;-70
2022/07/02 03:24:38;;;;;;;107.32;8.55;;;;;12.90;97098.00;;;;8342453;28;20192;-72
2022/07/02 03:28:41;;;;;;;54.45;6.45;;;;;12.90;97105.00;;;;8348600;28;20558;-71
2022/07/02 03:32:46;;;;;;;98.35;6.75;;;;;13.00;97108.00;;;;8342512;28;20204;-71
2022/07/02 03:36:49;;;;;;;57.13;5.95;;;;;13.10;97115.00;;;;8347477;28;20218;-72
2022/07/02 03:40:52;;;;;;;93.45;7.05;;;;;13.20;97114.00;;;;8347524;28;20250;-72
2022/07/02 03:44:56;;;;;;;71.63;7.80;;;;;13.20;97110.00;;;;8349636;28;20281;-71
2022/07/02 03:49:00;;;;;;;110.22;7.97;;;;;13.30;97117.00;;;;8356356;28;20211;-75
2022/07/02 03:53:03;;;;;;;110.50;9.68;;;;;13.30;97120.00;;;;8354354;28;20310;-76
2022/07/02 03:57:07;;;;;;;61.17;5.85;;;;;13.40;97133.00;;;;8350529;28;20201;-74
2022/07/02 04:01:10;;;;;;;63.33;7.05;;;;;13.50;97138.00;;;;8352245;28;20204;-74
2022/07/02 04:05:14;;;;;;;77.60;7.50;;;;;13.60;97130.00;;;;8321785;28;20589;-75
2022/07/02 04:09:18;;;;;;;165.82;10.52;;;;;13.70;97131.00;;;;8317879;28;20295;-73
2022/07/02 04:13:25;;;;;;;170.20;10.63;;;;;13.80;97131.00;;;;8313405;28;20653;-71
2022/07/02 04:17:30;;;;;;;60.90;7.00;;;;;13.90;97126.00;;;;8313859;28;20875;-73
2022/07/02 04:21:35;;;;;;;90.38;7.72;;;;;14.10;97128.00;;;;8318889;28;20308;-73
2022/07/02 04:25:38;;;;;;;145.35;9.18;;;;;14.20;97121.00;;;;8316125;28;20246;-71
2022/07/02 04:29:42;;;;;;;101.10;8.10;;;;;14.30;97128.00;;;;8315920;28;20566;-72
2022/07/02 04:33:45;;;;;;;106.65;8.13;;;;;14.40;97106.00;;;;8316557;28;20228;-74
2022/07/02 04:37:50;;;;;;;130.88;12.48;;;;;14.50;97111.00;;;;8310977;28;20215;-71
2022/07/02 04:41:53;;;;;;;152.95;11.02;;;;;14.60;97112.00;;;;8319548;28;20279;-71
2022/07/02 04:45:56;;;;;;;43.35;6.60;;;;;14.80;97122.00;;;;8317363;28;20203;-75
2022/07/02 04:50:00;;;;;;;70.80;8.18;;;;;14.90;97122.00;;;;8313851;28;20643;-74
2022/07/02 04:54:05;;;;;;;105.38;7.45;;;;;15.00;97125.00;;;;8317952;28;20321;-74
2022/07/02 04:58:08;;;;;;;125.55;8.27;;;;;15.10;97130.00;;;;8320084;28;20200;-75
2022/07/02 05:02:11;;;;;;;72.57;7.40;;;;;15.20;97128.00;;;;8313680;28;20237;-74
2022/07/02 05:06:14;;;;;;;115.35;9.00;;;;;15.40;97134.00;;;;8310439;28;20208;-72
2022/07/02 05:10:19;;;;;;;187.48;12.10;;;;;15.50;97135.00;;;;8313037;28;20567;-71
2022/07/02 05:14:22;;;;;;;193.20;12.90;;;;;15.60;97133.00;;;;8314624;28;20228;-69
2022/07/02 05:18:25;;;;;;;80.40;8.20;;;;;15.70;97147.00;;;;8314396;28;20231;-68
2022/07/02 05:22:29;;;;;;;163.57;10.45;;;;;15.80;97142.00;;;;8318508;28;20208;-68
2022/07/02 05:26:33;;;;;;;161.07;11.93;;;;;16.00;97142.00;;;;8317781;28;20236;-69
2022/07/02 05:30:37;;;;;;;317.90;16.55;;;;;16.10;97142.00;;;;8312214;28;20219;-71
2022/07/02 05:34:40;;;;;;;142.07;11.82;;;;;16.30;97159.00;;;;8315293;28;20251;-70
2022/07/02 05:38:44;;;;;;;157.70;11.48;;;;;16.40;97163.00;;;;8317772;28;20201;-71
2022/07/02 05:42:49;;;;;;;179.52;13.48;;;;;16.50;97168.00;;;;8320617;28;20198;-70
2022/07/02 05:46:52;;;;;;;76.00;11.48;;;;;16.60;97173.00;;;;8311792;28;20208;-69
2022/07/02 05:50:55;;;;;;;128.90;15.43;;;;;16.60;97166.00;;;;8319130;28;20216;-69
2022/07/02 05:54:59;;;;;;;95.13;15.50;;;;;16.60;97171.00;;;;8318839;28;20265;-69
2022/07/02 05:59:03;;;;;;;52.58;14.68;;;;;16.70;97176.00;;;;8316301;28;20219;-69
2022/07/02 06:03:07;;;;;;;34.35;13.82;;;;;16.80;97180.00;;;;8317394;28;20286;-68
2022/07/02 06:11:34;;;;;;;39.40;14.85;;;;;17.10;97183.00;;;;8316752;28;20280;-69
2022/07/02 06:15:39;;;;;;;30.35;13.77;;;;;17.30;97179.00;;;;8318695;28;20312;-69
2022/07/02 06:19:44;;;;;;;26.88;12.95;;;;;17.50;97187.00;;;;8316594;28;20719;-69
2022/07/02 06:23:47;;;;;;;28.98;13.48;;;;;17.70;97200.00;;;;8314182;28;20301;-70
2022/07/02 06:27:50;;;;;;;29.65;13.77;;;;;17.90;97195.00;;;;8314169;28;20277;-68
2022/07/02 06:31:55;;;;;;;25.88;13.27;;;;;18.10;97193.00;;;;8317102;28;20244;-68
2022/07/02 06:35:58;;;;;;;23.65;12.60;;;;;18.30;97191.00;;;;8316154;28;20224;-68
2022/07/02 06:40:01;;;;;;;23.90;12.90;;;;;18.50;97186.00;;;;8308691;28;20741;-69
2022/07/02 06:44:05;;;;;;;23.55;11.50;;;;;18.60;97174.00;;;;8320114;28;20833;-69
2022/07/02 06:48:10;;;;;;;17.65;10.68;;;;;18.70;97178.00;;;;8311962;28;20229;-70
2022/07/02 06:52:13;;;;;;;18.50;10.48;;;;;18.90;97186.00;;;;8318697;28;20761;-69
2022/07/02 06:56:16;;;;;;;17.60;10.23;;;;;19.30;97183.00;;;;8314959;28;20243;-70
2022/07/02 07:00:21;;;;;;;15.25;10.52;;;;;19.60;97181.00;;;;8318358;28;20280;-69
2022/07/02 07:04:27;;;;;;;16.05;10.50;;;;;19.90;97188.00;;;;8317887;28;20324;-69
2022/07/02 07:08:30;;;;;;;14.25;9.75;;;;;20.20;97185.00;;;;8320256;28;20264;-69
2022/07/02 07:12:33;;;;;;;15.90;10.45;;;;;20.40;97190.00;;;;8316272;28;20215;-68
2022/07/02 07:16:36;;;;;;;13.27;9.68;;;;;20.90;97196.00;;;;8323449;28;20221;-68
2022/07/02 07:20:41;;;;;;;15.93;9.70;;;;;21.20;97204.00;;;;8328356;28;20207;-69
2022/07/02 07:24:44;;;;;;;16.60;10.27;;;;;21.40;97210.00;;;;8328075;28;20205;-67
2022/07/02 07:28:47;;;;;;;14.07;9.30;;;;;21.60;97201.00;;;;8328911;28;20222;-68
2022/07/02 07:32:50;;;;;;;13.07;9.77;;;;;21.50;97201.00;;;;8330314;28;20839;-70
2022/07/02 07:36:55;;;;;;;13.50;9.40;;;;;21.60;97197.00;;;;8327794;28;20601;-69
2022/07/02 07:40:58;;;;;;;16.15;10.20;;;;;22.00;97194.00;;;;8324485;28;20190;-70
2022/07/02 07:45:03;;;;;;;13.18;9.50;;;;;22.20;97207.00;;;;8327110;28;20734;-69
2022/07/02 07:49:07;;;;;;;11.73;9.27;;;;;22.30;97213.00;;;;8329592;28;20208;-69
2022/07/02 07:53:11;;;;;;;12.77;9.30;;;;;22.60;97214.00;;;;8327553;28;20209;-68
2022/07/02 07:57:15;;;;;;;9.40;8.27;;;;;22.80;97210.00;;;;8322827;28;20233;-70
2022/07/02 08:01:18;;;;;;;11.30;9.07;;;;;23.00;97216.00;;;;8324847;28;20215;-69
2022/07/02 08:05:21;;;;;;;9.05;7.75;;;;;23.20;97224.00;;;;8310684;28;20189;-70
2022/07/02 08:09:26;;;;;;;10.13;8.07;;;;;23.10;97218.00;;;;8300323;28;20233;-76
2022/07/02 08:13:29;;;;;;;10.60;8.13;;;;;23.10;97211.00;;;;8296425;28;20204;-74
2022/07/02 08:17:32;;;;;;;9.27;8.32;;;;;23.10;97216.00;;;;8323930;28;20235;-71
2022/07/02 08:21:35;;;;;;;8.52;7.13;;;;;24.30;97212.00;;;;8321413;28;20207;-72
2022/07/02 08:25:40;;;;;;;8.27;6.95;;;;;24.40;97215.00;;;;8314503;28;20197;-71
2022/07/02 08:29:44;;;;;;;10.85;7.35;;;;;24.60;97219.00;;;;8295242;28;20228;-72
2022/07/02 08:33:47;;;;;;;8.95;6.80;;;;;24.80;97221.00;;;;8302711;28;20201;-72
2022/07/02 08:37:50;;;;;;;7.68;6.85;;;;;25.50;97222.00;;;;8299333;28;20764;-72
2022/07/02 08:41:58;;;;;;;7.72;6.75;;;;;26.50;97215.00;;;;8287019;28;20205;-72
2022/07/02 08:46:04;;;;;;;7.38;6.68;;;;;27.30;97210.00;;;;8293128;28;20209;-72
2022/07/02 08:50:10;;;;;;;10.55;7.45;;;;;27.70;97209.00;;;;8314811;28;20586;-72
2022/07/02 08:54:13;;;;;;;5.60;5.10;;;;;28.20;97209.00;;;;8296544;28;21026;-72
2022/07/02 08:58:18;;;;;;;6.20;5.60;;;;;28.30;97206.00;;;;8317075;28;20320;-72
2022/07/02 09:02:22;;;;;;;6.53;5.90;;;;;28.40;97200.00;;;;8320965;28;20229;-72
2022/07/02 09:06:29;;;;;;;6.38;4.47;;;;;28.90;97198.00;;;;8317268;28;20202;-72
2022/07/02 09:10:34;;;;;;;5.00;4.50;;;;;29.40;97192.00;;;;8317525;28;20197;-72
2022/07/02 09:14:39;;;;;;;4.63;4.22;;;;;29.50;97189.00;;;;8321051;28;20284;-73
2022/07/02 09:18:43;;;;;;;4.82;4.43;;;;;29.80;97197.00;;;;8316927;28;20205;-72
2022/07/02 09:22:48;;;;;;;7.70;4.95;;;;;29.80;97184.00;;;;8319888;28;20210;-72
2022/07/02 09:26:59;;;;;;;5.95;3.58;;;;;29.80;97181.00;;;;8318213;28;20292;-72
2022/07/02 09:31:06;;;;;;;4.50;4.20;;;;;29.90;97185.00;;;;8320537;28;20658;-72
2022/07/02 09:35:18;;;;;;;3.17;2.97;;;;;30.30;97187.00;;;;8318558;28;20244;-72
2022/07/02 09:39:29;;;;;;;3.58;3.30;;;;;31.00;97192.00;;;;8315131;28;20201;-71
2022/07/02 09:43:37;;;;;;;3.38;2.80;;;;;31.50;97192.00;;;;8313737;28;20259;-73
2022/07/02 09:47:48;;;;;;;2.85;2.67;;;;;31.60;97191.00;;;;8317268;28;20204;-72
2022/07/02 09:51:53;;;;;;;2.35;2.22;;;;;31.80;97184.00;;;;8320355;28;21020;-72
2022/07/02 09:55:57;;;;;;;2.33;2.22;;;;;32.10;97168.00;;;;8319330;28;20247;-72
2022/07/02 10:00:09;;;;;;;2.10;2.00;;;;;32.00;97160.00;;;;8317481;28;20212;-72
2022/07/02 10:04:14;;;;;;;2.75;2.55;;;;;31.90;97163.00;;;;8315643;28;20271;-73
2022/07/02 10:08:20;;;;;;;2.85;1.80;;;;;31.90;97166.00;;;;8313967;28;20204;-72
2022/07/02 10:12:23;;;;;;;2.00;1.90;;;;;31.80;97166.00;;;;8316734;28;20225;-73
2022/07/02 10:16:28;;;;;;;2.83;1.55;;;;;32.00;97155.00;;;;8313406;28;20230;-71
2022/07/02 10:20:34;;;;;;;1.75;1.65;;;;;32.40;97148.00;;;;8316967;28;20212;-70
2022/07/02 10:24:38;;;;;;;3.50;1.65;;;;;32.40;97144.00;;;;8317500;28;20540;-71
2022/07/02 10:28:41;;;;;;;1.35;1.35;;;;;32.40;97137.00;;;;8315436;28;20280;-71
2022/07/02 10:32:55;;;;;;;1.60;1.38;;;;;32.50;97147.00;;;;8314019;28;20308;-71
2022/07/02 10:37:00;;;;;;;1.60;1.50;;;;;32.50;97144.00;;;;8313096;28;20678;-71
2022/07/02 10:41:04;;;;;;;1.98;1.30;;;;;32.20;97145.00;;;;8316578;28;20212;-71
2022/07/02 10:45:16;;;;;;;2.35;1.52;;;;;32.30;97135.00;;;;8316265;28;20276;-70
2022/07/02 10:49:26;;;;;;;1.58;1.30;;;;;32.70;97134.00;;;;8315068;28;20245;-70
2022/07/02 10:53:51;;;;;;;2.45;1.70;;;;;32.70;97127.00;;;;8311704;28;20271;-70
2022/07/02 10:57:59;;;;;;;1.23;1.20;;;;;32.80;97124.00;;;;8315988;28;20320;-70
2022/07/02 11:02:03;;;;;;;1.40;1.30;;;;;32.90;97119.00;;;;8313748;28;20236;-72
2022/07/02 11:06:08;;;;;;;1.40;1.30;;;;;32.80;97120.00;;;;8307560;28;20209;-70
2022/07/02 11:10:12;;;;;;;2.92;1.15;;;;;33.10;97120.00;;;;8315393;28;20699;-71
2022/07/02 11:14:17;;;;;;;1.27;1.00;;;;;33.20;97113.00;;;;8312829;28;20994;-73
2022/07/02 11:18:21;;;;;;;2.80;1.10;;;;;33.20;97117.00;;;;8312123;28;20225;-72
2022/07/02 11:22:32;;;;;;;1.08;1.08;;;;;33.00;97095.00;;;;8312487;28;20211;-74
2022/07/02 11:26:41;;;;;;;1.20;1.10;;;;;32.90;97091.00;;;;8311584;28;20892;-74
2022/07/02 11:30:44;;;;;;;1.08;1.08;;;;;33.20;97092.00;;;;8316388;28;20204;-73
2022/07/02 11:34:47;;;;;;;1.83;1.33;;;;;33.50;97080.00;;;;8309532;28;20209;-73
2022/07/02 11:38:51;;;;;;;2.28;1.02;;;;;33.50;97090.00;;;;8310078;28;20691;-74
2022/07/02 11:42:56;;;;;;;3.25;1.40;;;;;33.70;97079.00;;;;8311862;28;20647;-76
2022/07/02 11:47:01;;;;;;;1.38;1.38;;;;;33.40;97071.00;;;;8310685;28;20210;-75
2022/07/02 11:51:04;;;;;;;1.45;1.35;;;;;33.80;97072.00;;;;8317372;28;20202;-75
2022/07/02 11:55:16;;;;;;;1.20;1.10;;;;;34.10;97069.00;;;;8314926;28;20236;-76
2022/07/02 11:59:23;;;;;;;1.20;1.20;;;;;34.40;97073.00;;;;8315069;28;20758;-75
2022/07/02 12:03:26;;;;;;;3.65;1.40;;;;;34.60;97073.00;;;;8316586;28;20626;-75
2022/07/02 12:07:30;;;;;;;1.10;1.10;;;;;34.60;97071.00;;;;8323858;28;20198;-76
2022/07/02 12:11:35;;;;;;;1.48;1.27;;;;;34.70;97049.00;;;;8319912;28;20201;-75
2022/07/02 12:15:44;;;;;;;1.00;1.00;;;;;34.50;97049.00;;;;8318823;28;20647;-76
2022/07/02 12:19:47;;;;;;;0.90;0.90;;;;;34.40;97046.00;;;;8317513;28;20193;-75
2022/07/02 12:23:51;;;;;;;1.10;1.00;;;;;34.40;97037.00;;;;8320899;28;20212;-76
2022/07/02 12:27:55;;;;;;;1.33;1.13;;;;;34.10;97039.00;;;;8315222;28;20699;-76
2022/07/02 12:32:07;;;;;;;1.20;1.10;;;;;34.10;97037.00;;;;8321181;28;20208;-76
2022/07/02 12:36:10;;;;;;;1.10;1.10;;;;;34.20;97043.00;;;;8320162;28;20265;-74
2022/07/02 12:40:15;;;;;;;1.23;1.17;;;;;34.10;97035.00;;;;8320032;28;20205;-75
2022/07/02 12:44:21;;;;;;;1.05;1.05;;;;;34.20;97024.00;;;;8313816;28;20658;-72
2022/07/02 12:48:26;;;;;;;1.80;1.00;;;;;34.20;97002.00;;;;8325033;28;20200;-73
2022/07/02 12:52:30;;;;;;;2.58;1.20;;;;;33.70;97001.00;;;;8319539;28;20204;-74
2022/07/02 12:56:40;;;;;;;1.00;1.00;;;;;32.80;96971.00;;;;8318109;28;20232;-72
2022/07/02 13:00:45;;;;;;;1.02;0.98;;;;;32.40;96968.00;;;;8316533;28;20252;-72
2022/07/02 13:04:50;;;;;;;0.98;0.90;;;;;31.60;96969.00;;;;8312442;28;20244;-73
2022/07/02 13:08:53;;;;;;;2.65;1.23;;;;;31.30;96972.00;;;;8315426;28;20202;-73
2022/07/02 13:12:56;;;;;;;1.10;1.00;;;;;31.20;96980.00;;;;8318421;28;20202;-72
2022/07/02 13:16:59;;;;;;;2.28;1.00;;;;;31.60;96983.00;;;;8322125;28;20284;-72
2022/07/02 13:21:24;;;;;;;1.00;1.00;;;;;32.40;96974.00;;;;8323569;28;20208;-72
2022/07/02 13:25:28;;;;;;;1.30;1.23;;;;;32.80;96975.00;;;;8324219;28;20293;-71
2022/07/02 13:29:38;;;;;;;2.38;1.00;;;;;33.30;96965.00;;;;8321377;28;20201;-71
2022/07/02 13:33:41;;;;;;;2.38;1.15;;;;;33.40;96972.00;;;;8324586;28;20209;-72
2022/07/02 13:37:46;;;;;;;1.30;1.20;;;;;33.60;96971.00;;;;8319471;28;20244;-73
2022/07/02 13:41:49;;;;;;;2.08;1.10;;;;;34.00;96981.00;;;;8318748;28;21055;-72
2022/07/02 13:45:52;;;;;;;1.92;1.20;;;;;34.20;96960.00;;;;8320242;28;20204;-72
2022/07/02 13:49:56;;;;;;;1.30;1.20;;;;;34.40;96959.00;;;;8319538;28;20233;-73
2022/07/02 13:54:00;;;;;;;1.35;1.10;;;;;34.20;96947.00;;;;8320264;28;20284;-72
2022/07/02 13:58:04;;;;;;;6.90;1.30;;;;;34.10;96955.00;;;;8326830;28;20223;-71
2022/07/02 14:02:07;;;;;;;2.35;1.10;;;;;34.60;96953.00;;;;8319117;28;20312;-72
2022/07/02 14:06:10;;;;;;;1.10;1.10;;;;;34.60;96944.00;;;;8320957;28;20201;-72
2022/07/02 14:10:15;;;;;;;1.33;1.10;;;;;34.70;96937.00;;;;8318213;28;20204;-72
2022/07/02 14:14:19;;;;;;;1.85;1.20;;;;;34.80;96930.00;;;;8320504;28;20324;-72
2022/07/02 14:18:22;;;;;;;1.30;1.30;;;;;34.70;96924.00;;;;8322200;28;20843;-72
2022/07/02 14:22:29;;;;;;;0.95;0.95;;;;;34.80;96916.00;;;;8319161;28;20276;-71
2022/07/02 14:26:33;;;;;;;1.20;1.10;;;;;35.00;96909.00;;;;8320234;28;20898;-71
2022/07/02 14:30:37;;;;;;;1.60;1.35;;;;;35.00;96909.00;;;;8317363;28;20205;-71
2022/07/02 14:34:40;;;;;;;3.20;1.20;;;;;35.40;96905.00;;;;8314919;28;20189;-72
2022/07/02 14:38:44;;;;;;;1.58;1.10;;;;;35.40;96905.00;;;;8318777;28;20557;-72
2022/07/02 14:42:49;;;;;;;1.25;1.17;;;;;35.40;96903.00;;;;8318705;28;20280;-70
2022/07/02 14:46:53;;;;;;;2.55;1.27;;;;;35.20;96894.00;;;;8320559;28;20208;-71
2022/07/02 14:50:56;;;;;;;1.55;1.25;;;;;35.10;96899.00;;;;8319798;28;20635;-72
2022/07/02 14:54:59;;;;;;;1.27;1.20;;;;;35.20;96898.00;;;;8318775;28;20208;-71
2022/07/02 14:59:09;;;;;;;1.15;1.15;;;;;35.40;96887.00;;;;8323906;28;20228;-71
2022/07/02 15:03:13;;;;;;;1.10;1.10;;;;;35.60;96885.00;;;;8317371;28;20264;-72
2022/07/02 15:07:16;;;;;;;1.13;1.13;;;;;35.70;96880.00;;;;8325509;28;20240;-72
2022/07/02 15:11:19;;;;;;;1.38;1.27;;;;;35.70;96871.00;;;;8318781;28;20637;-71
2022/07/02 15:19:50;;;;;;;2.78;1.38;;;;;34.90;96848.00;;;;8316733;28;20229;-71
2022/07/02 15:23:55;;;;;;;1.23;1.20;;;;;34.80;96841.00;;;;8317869;28;20284;-72
2022/07/02 15:28:01;;;;;;;3.70;1.40;;;;;34.60;96842.00;;;;8316816;28;20240;-70
2022/07/02 15:32:09;;;;;;;1.40;1.40;;;;;34.60;96828.00;;;;8306920;28;20210;-71
2022/07/02 15:36:16;;;;;;;1.52;1.42;;;;;34.80;96827.00;;;;8311712;28;20198;-70
2022/07/02 15:40:20;;;;;;;1.40;1.30;;;;;34.70;96818.00;;;;8323455;28;20648;-72
2022/07/02 15:44:28;;;;;;;1.50;1.40;;;;;34.70;96802.00;;;;8321887;28;20197;-72
2022/07/02 15:48:33;;;;;;;1.40;1.30;;;;;34.60;96802.00;;;;8321226;28;20198;-72
2022/07/02 15:52:40;;;;;;;1.50;1.40;;;;;34.40;96794.00;;;;8322385;28;20197;-72
2022/07/02 15:56:48;;;;;;;1.85;1.17;;;;;34.20;96788.00;;;;8325799;28;20667;-72
2022/07/02 16:00:54;;;;;;;3.63;1.85;;;;;34.10;96784.00;;;;8326486;28;20235;-72
2022/07/02 16:05:02;;;;;;;1.75;1.60;;;;;34.00;96789.00;;;;8323610;28;20229;-71
2022/07/02 16:09:05;;;;;;;1.42;1.30;;;;;34.10;96778.00;;;;8319873;28;20415;-71
2022/07/02 16:13:09;;;;;;;1.65;1.55;;;;;34.10;96786.00;;;;8318744;28;20193;-72
2022/07/02 16:17:18;;;;;;;1.70;1.60;;;;;34.30;96786.00;;;;8301618;28;20466;-72
2022/07/02 16:21:23;;;;;;;2.63;2.42;;;;;34.50;96775.00;;;;8312186;28;20807;-71
2022/07/02 16:25:26;;;;;;;1.83;1.73;;;;;34.50;96784.00;;;;8317574;28;20202;-71
2022/07/02 16:29:29;;;;;;;19.60;13.15;;;;;34.70;96789.00;;;;8315505;28;20237;-71
2022/07/02 16:33:42;;;;;;;13.05;9.27;;;;;34.60;96784.00;;;;8313890;28;20201;-72
2022/07/02 16:37:49;;;;;;;5.20;4.00;;;;;34.70;96785.00;;;;8316662;28;20225;-69
2022/07/02 16:41:55;;;;;;;6.18;2.40;;;;;34.80;96773.00;;;;8315510;28;20198;-69
2022/07/02 16:46:02;;;;;;;2.85;2.65;;;;;34.90;96770.00;;;;8319551;28;20203;-70
2022/07/02 16:50:08;;;;;;;3.85;2.40;;;;;35.10;96756.00;;;;8304844;28;20289;-71
2022/07/02 16:54:14;;;;;;;2.60;2.40;;;;;35.20;96755.00;;;;8311593;28;20193;-71
2022/07/02 16:58:17;;;;;;;5.60;1.50;;;;;35.60;96763.00;;;;8308597;28;20222;-71
2022/07/02 17:02:23;;;;;;;1.70;1.60;;;;;35.50;96752.00;;;;8313752;28;20789;-71
2022/07/02 17:06:27;;;;;;;2.78;1.60;;;;;35.60;96751.00;;;;8311363;28;20205;-71
2022/07/02 17:15:05;;;;;;;1.65;1.45;;;;;35.70;96747.00;;;;8241529;28;20288;-71
2022/07/02 17:19:13;;;;;;;1.75;1.65;;;;;35.70;96736.00;;;;8317073;28;20218;-70
2022/07/02 17:23:16;;;;;;;2.80;1.70;;;;;35.60;96735.00;;;;8318404;28;20213;-70
2022/07/02 17:27:21;;;;;;;2.33;2.15;;;;;35.40;96739.00;;;;8316610;28;20292;-68
2022/07/02 17:31:24;;;;;;;1.95;1.80;;;;;35.30;96741.00;;;;8318622;28;20809;-70
2022/07/02 17:35:28;;;;;;;1.95;1.50;;;;;35.10;96729.00;;;;8315169;28;20562;-70
2022/07/02 17:39:31;;;;;;;2.72;1.50;;;;;35.00;96733.00;;;;8313466;28;20231;-69
2022/07/02 17:43:37;;;;;;;1.80;1.60;;;;;35.00;96730.00;;;;8316264;28;20283;-70
2022/07/02 17:47:41;;;;;;;1.70;1.60;;;;;35.10;96730.00;;;;8309986;28;20867;-70
2022/07/02 17:51:44;;;;;;;2.22;1.80;;;;;35.40;96722.00;;;;8318543;28;20769;-70
2022/07/02 17:55:48;;;;;;;1.27;1.27;;;;;35.20;96730.00;;;;8314293;28;20321;-70
2022/07/02 17:59:52;;;;;;;1.70;1.70;;;;;33.80;96728.00;;;;8310893;28;20228;-68
2022/07/02 18:03:56;;;;;;;1.65;1.58;;;;;32.60;96717.00;;;;8313428;28;20237;-68
2022/07/02 18:07:59;;;;;;;1.58;1.48;;;;;31.20;96722.00;;;;8310825;28;20197;-69
2022/07/02 18:12:03;;;;;;;1.77;1.63;;;;;30.20;96723.00;;;;8309666;28;20209;-70
2022/07/02 18:16:09;;;;;;;1.60;1.50;;;;;29.20;96722.00;;;;8312830;28;20207;-71
2022/07/02 18:20:12;;;;;;;10.10;5.05;;;;;28.40;96719.00;;;;8306559;28;20344;-70
2022/07/02 18:24:16;;;;;;;14.32;8.25;;;;;27.80;96712.00;;;;8313205;28;20558;-70
2022/07/02 18:28:19;;;;;;;5.78;4.53;;;;;27.30;96709.00;;;;8311780;28;20263;-70
2022/07/02 18:32:25;;;;;;;2.30;2.10;;;;;26.90;96695.00;;;;8312284;28;20358;-69
2022/07/02 18:36:28;;;;;;;2.22;1.90;;;;;26.60;96703.00;;;;8314083;28;20197;-70
2022/07/02 18:40:33;;;;;;;7.03;1.65;;;;;26.40;96691.00;;;;8316626;28;20233;-70
2022/07/02 18:44:36;;;;;;;2.78;1.48;;;;;26.00;96692.00;;;;8313697;28;20194;-68
2022/07/02 18:48:41;;;;;;;2.05;1.70;;;;;25.80;96690.00;;;;8315508;28;20217;-68
2022/07/02 18:52:44;;;;;;;1.70;1.52;;;;;25.60;96685.00;;;;8312681;28;20339;-70
2022/07/02 18:56:47;;;;;;;1.80;1.70;;;;;25.30;96688.00;;;;8317924;28;20201;-69
2022/07/02 19:00:51;;;;;;;1.58;1.50;;;;;25.10;96692.00;;;;8316322;28;20311;-69
2022/07/02 19:04:55;;;;;;;1.63;1.50;;;;;24.70;96695.00;;;;8315530;28;20240;-70
2022/07/02 19:08:59;;;;;;;1.90;1.80;;;;;24.20;96687.00;;;;8317362;28;20201;-70
2022/07/02 19:13:03;;;;;;;1.75;1.58;;;;;23.70;96680.00;;;;8315585;28;20233;-69
2022/07/02 19:17:07;;;;;;;2.40;1.83;;;;;23.20;96683.00;;;;8313486;28;20212;-68
2022/07/02 19:21:12;;;;;;;1.95;1.85;;;;;22.70;96684.00;;;;8318596;28;20236;-68
2022/07/02 19:25:15;;;;;;;2.00;1.80;;;;;22.30;96683.00;;;;8316755;28;20201;-69
2022/07/02 19:33:40;;;;;;;2.15;2.05;;;;;21.50;96677.00;;;;8314878;28;20200;-69
2022/07/02 19:37:45;;;;;;;2.20;1.80;;;;;21.20;96687.00;;;;8313269;28;20597;-68
2022/07/02 19:41:48;;;;;;;2.10;2.00;;;;;20.90;96680.00;;;;8319534;28;21165;-69
2022/07/02 19:45:51;;;;;;;3.28;2.03;;;;;20.70;96685.00;;;;8318393;28;20196;-68
2022/07/02 19:49:55;;;;;;;1.90;1.77;;;;;20.60;96691.00;;;;8317356;28;20255;-69
2022/07/02 19:53:59;;;;;;;1.77;1.67;;;;;20.50;96687.00;;;;8317657;28;20194;-69
2022/07/02 19:58:03;;;;;;;1.95;1.77;;;;;20.20;96682.00;;;;8309166;28;20317;-68
2022/07/02 20:02:07;;;;;;;2.10;2.00;;;;;20.10;96694.00;;;;8313527;28;20321;-69
2022/07/02 20:06:11;;;;;;;4.07;2.13;;;;;19.90;96690.00;;;;8319060;28;20201;-69
2022/07/02 20:10:15;;;;;;;1.95;1.90;;;;;19.70;96690.00;;;;8316226;28;20202;-69
2022/07/02 20:14:18;;;;;;;2.20;2.00;;;;;19.60;96691.00;;;;8316355;28;20224;-69
2022/07/02 20:18:21;;;;;;;1.90;1.80;;;;;19.50;96690.00;;;;8319108;28;20755;-70
2022/07/02 20:22:26;;;;;;;2.28;2.10;;;;;19.30;96698.00;;;;8317127;28;20221;-69
2022/07/02 20:26:31;;;;;;;1.90;1.80;;;;;19.10;96689.00;;;;8314405;28;20213;-68
2022/07/02 20:30:34;;;;;;;2.33;2.13;;;;;19.00;96700.00;;;;8316256;28;20199;-68